createdAt,value
2023-03-17T00:01:57.976Z,2.46
2023-03-17T00:04:27.960Z,2.36
2023-03-17T00:06:56.837Z,2.20
2023-03-17T00:09:24.549Z,2.26
2023-03-17T00:11:52.462Z,2.13
2023-03-17T00:14:20.434Z,2.30
2023-03-17T00:16:53.260Z,2.04
2023-03-17T00:19:31.290Z,2.17
2023-03-17T00:22:01.058Z,2.19
2023-03-17T00:24:29.449Z,2.29
2023-03-17T00:26:57.233Z,2.31
2023-03-17T00:29:25.591Z,2.36
2023-03-17T00:31:55.374Z,2.23
2023-03-17T00:34:23.791Z,2.31
2023-03-17T00:36:53.615Z,2.26
2023-03-17T00:39:25.592Z,2.53
2023-03-17T00:41:55.459Z,2.54
2023-03-17T00:44:24.303Z,2.40
2023-03-17T00:46:53.400Z,2.32
2023-03-17T00:49:25.049Z,2.30
2023-03-17T00:51:53.526Z,2.28
2023-03-17T00:54:23.351Z,2.24
2023-03-17T00:56:52.923Z,2.25
2023-03-17T00:59:29.810Z,2.38
2023-03-17T01:01:58.447Z,2.38
2023-03-17T01:04:26.274Z,2.27
2023-03-17T01:06:54.605Z,2.39
2023-03-17T01:09:27.301Z,2.28
2023-03-17T01:11:55.934Z,2.05
2023-03-17T01:14:24.922Z,2.29
2023-03-17T01:16:55.897Z,2.14
2023-03-17T01:19:23.840Z,2.01
2023-03-17T01:21:52.362Z,2.19
2023-03-17T01:24:20.173Z,2.14
2023-03-17T01:26:47.917Z,2.00
2023-03-17T01:29:16.560Z,2.23
2023-03-17T01:31:45.554Z,2.20
2023-03-17T01:34:13.433Z,1.90
2023-03-17T01:36:44.397Z,2.01
2023-03-17T01:39:13.023Z,2.05
2023-03-17T01:41:41.016Z,2.14
2023-03-17T01:44:19.080Z,2.07
2023-03-17T01:46:47.753Z,2.11
2023-03-17T01:49:19.480Z,2.00
2023-03-17T01:52:09.297Z,2.11
2023-03-17T01:54:42.322Z,2.17
2023-03-17T01:57:18.620Z,2.22
2023-03-17T01:59:54.497Z,2.12
2023-03-17T02:02:31.107Z,2.13
2023-03-17T02:05:00.022Z,2.18
2023-03-17T02:07:28.609Z,2.39
2023-03-17T02:09:58.919Z,2.30
2023-03-17T02:12:29.252Z,2.17
2023-03-17T02:14:57.682Z,2.33
2023-03-17T02:17:28.192Z,1.98
2023-03-17T02:19:57.120Z,2.32
2023-03-17T02:22:25.312Z,2.23
2023-03-17T02:24:58.196Z,1.97
2023-03-17T02:27:41.981Z,2.20
2023-03-17T02:30:12.997Z,2.37
2023-03-17T02:32:43.553Z,2.18
2023-03-17T02:35:12.136Z,2.52
2023-03-17T02:37:42.101Z,2.18
2023-03-17T02:40:11.459Z,2.54
2023-03-17T02:42:42.147Z,2.30
2023-03-17T02:45:12.370Z,2.27
2023-03-17T02:47:41.586Z,2.43
2023-03-17T02:50:18.220Z,2.33
2023-03-17T02:52:46.167Z,2.15
2023-03-17T02:55:14.317Z,2.20
2023-03-17T02:57:42.247Z,2.38
2023-03-17T03:00:10.637Z,2.31
2023-03-17T03:02:39.238Z,2.32
2023-03-17T03:05:08.971Z,2.34
2023-03-17T03:07:36.784Z,2.31
2023-03-17T03:10:05.851Z,2.16
2023-03-17T03:12:33.682Z,2.31
2023-03-17T03:15:01.619Z,2.23
2023-03-17T03:17:29.357Z,2.47
2023-03-17T03:19:57.091Z,2.52
2023-03-17T03:22:24.802Z,2.61
2023-03-17T03:24:52.660Z,2.51
2023-03-17T03:27:20.466Z,2.49
2023-03-17T03:29:48.327Z,2.76
2023-03-17T03:32:16.440Z,2.39
2023-03-17T03:34:44.247Z,2.56
2023-03-17T03:37:12.575Z,2.36
2023-03-17T03:39:40.388Z,2.64
2023-03-17T03:42:08.596Z,2.46
2023-03-17T03:44:36.443Z,2.40
2023-03-17T03:47:04.244Z,2.47
2023-03-17T03:49:32.026Z,2.28
2023-03-17T03:51:59.786Z,2.37
2023-03-17T03:54:27.799Z,2.47
2023-03-17T03:56:55.829Z,2.65
2023-03-17T03:59:23.597Z,2.40
2023-03-17T04:01:51.281Z,2.45
2023-03-17T04:04:19.249Z,2.38
2023-03-17T04:06:47.141Z,2.32
2023-03-17T04:09:15.006Z,2.33
2023-03-17T04:11:42.763Z,2.46
2023-03-17T04:14:10.471Z,2.50
2023-03-17T04:16:38.224Z,2.50
2023-03-17T04:19:06.961Z,2.69
2023-03-17T04:21:34.833Z,2.72
2023-03-17T04:24:04.433Z,2.48
2023-03-17T04:26:33.500Z,2.53
2023-03-17T04:29:01.539Z,2.77
2023-03-17T04:31:29.290Z,2.68
2023-03-17T04:33:57.121Z,2.48
2023-03-17T04:36:25.224Z,2.64
2023-03-17T04:38:53.110Z,2.48
2023-03-17T04:41:21.526Z,2.76
2023-03-17T04:43:49.314Z,2.76
2023-03-17T04:46:17.483Z,2.59
2023-03-17T04:48:45.454Z,2.62
2023-03-17T04:51:13.305Z,2.83
2023-03-17T04:53:41.243Z,2.67
2023-03-17T04:56:09.122Z,2.51
2023-03-17T04:58:36.991Z,2.45
2023-03-17T05:01:05.237Z,2.61
2023-03-17T05:03:33.390Z,2.42
2023-03-17T05:06:02.396Z,2.70
2023-03-17T05:08:30.440Z,2.70
2023-03-17T05:10:59.100Z,2.53
2023-03-17T05:13:27.404Z,2.81
2023-03-17T05:15:56.360Z,2.62
2023-03-17T05:18:25.697Z,2.55
2023-03-17T05:20:54.252Z,2.59
2023-03-17T05:23:23.254Z,2.60
2023-03-17T05:25:51.478Z,2.57
2023-03-17T05:28:21.236Z,2.69
2023-03-17T05:30:50.306Z,2.82
2023-03-17T05:33:18.233Z,2.73
2023-03-17T05:35:46.536Z,2.56
2023-03-17T05:38:16.080Z,2.41
2023-03-17T05:40:45.032Z,2.56
2023-03-17T05:43:13.200Z,2.67
2023-03-17T05:45:41.324Z,2.69
2023-03-17T05:48:09.080Z,2.82
2023-03-17T05:50:37.251Z,2.89
2023-03-17T05:53:04.957Z,2.85
2023-03-17T05:55:33.113Z,3.00
2023-03-17T05:58:01.063Z,2.81
2023-03-17T06:00:29.293Z,2.68
2023-03-17T06:02:57.501Z,2.92
2023-03-17T06:05:25.322Z,2.89
2023-03-17T06:07:56.354Z,2.82
2023-03-17T06:10:25.191Z,3.05
2023-03-17T06:12:53.570Z,3.04
2023-03-17T06:15:21.529Z,3.23
2023-03-17T06:17:49.383Z,3.50
2023-03-17T06:20:17.680Z,3.57
2023-03-17T06:23:02.391Z,3.75
2023-03-17T06:25:31.466Z,3.63
2023-03-17T06:28:02.879Z,3.47
2023-03-17T06:30:35.324Z,3.03
2023-03-17T06:33:04.100Z,3.04
2023-03-17T06:35:33.507Z,3.06
2023-03-17T06:38:02.334Z,3.24
2023-03-17T06:40:30.866Z,3.07
2023-03-17T06:43:00.301Z,2.89
2023-03-17T06:45:28.382Z,3.11
2023-03-17T06:47:57.148Z,3.20
2023-03-17T06:50:25.788Z,3.48
2023-03-17T06:52:54.149Z,3.79
2023-03-17T06:55:22.157Z,3.67
2023-03-17T06:57:51.286Z,3.33
2023-03-17T07:00:21.153Z,3.57
2023-03-17T07:02:49.977Z,3.29
2023-03-17T07:05:18.046Z,3.34
2023-03-17T07:07:46.532Z,3.35
2023-03-17T07:10:17.313Z,3.50
2023-03-17T07:12:45.693Z,3.33
2023-03-17T07:15:13.693Z,3.21
2023-03-17T07:17:41.698Z,3.21
2023-03-17T07:20:11.751Z,3.13
2023-03-17T07:22:40.230Z,3.45
2023-03-17T07:25:09.760Z,3.68
2023-03-17T07:27:37.806Z,3.34
2023-03-17T07:30:06.684Z,3.31
2023-03-17T07:32:35.543Z,3.31
2023-03-17T07:35:04.895Z,3.40
2023-03-17T07:37:33.101Z,3.41
2023-03-17T07:40:01.197Z,3.54
2023-03-17T07:42:29.150Z,3.56
2023-03-17T07:44:57.198Z,3.83
2023-03-17T07:47:24.954Z,4.01
2023-03-17T07:49:53.502Z,4.13
2023-03-17T07:52:21.655Z,4.05
2023-03-17T07:54:51.588Z,3.94
2023-03-17T07:57:19.289Z,3.55
2023-03-17T07:59:47.478Z,3.77
2023-03-17T08:02:17.038Z,3.72
2023-03-17T08:04:46.161Z,4.18
2023-03-17T08:07:14.789Z,4.91
2023-03-17T08:09:42.817Z,4.87
2023-03-17T08:12:10.888Z,3.68
2023-03-17T08:14:38.603Z,3.75
2023-03-17T08:17:06.457Z,3.41
2023-03-17T08:19:34.690Z,3.40
2023-03-17T08:22:02.557Z,3.18
2023-03-17T08:24:30.589Z,3.18
2023-03-17T08:27:00.798Z,3.38
2023-03-17T08:29:29.307Z,3.53
2023-03-17T08:31:57.516Z,3.34
2023-03-17T08:34:26.376Z,3.05
2023-03-17T08:36:54.066Z,2.94
2023-03-17T08:39:21.896Z,3.04
2023-03-17T08:41:49.598Z,3.06
2023-03-17T08:44:17.473Z,3.15
2023-03-17T08:46:45.698Z,3.07
2023-03-17T08:49:13.693Z,2.77
2023-03-17T08:51:41.968Z,3.13
2023-03-17T08:54:10.649Z,3.00
2023-03-17T08:56:40.458Z,3.14
2023-03-17T08:59:09.809Z,3.14
2023-03-17T09:01:38.703Z,3.00
2023-03-17T09:04:07.156Z,3.03
2023-03-17T09:06:34.826Z,3.01
2023-03-17T09:09:02.806Z,3.19
2023-03-17T09:11:32.801Z,3.28
2023-03-17T09:14:00.972Z,3.26
2023-03-17T09:16:28.842Z,3.50
2023-03-17T09:18:56.695Z,3.10
2023-03-17T09:21:24.564Z,2.98
2023-03-17T09:23:52.267Z,3.16
2023-03-17T09:26:20.604Z,3.16
2023-03-17T09:28:48.827Z,3.13
2023-03-17T09:31:16.895Z,3.09
2023-03-17T09:33:44.663Z,2.91
2023-03-17T09:36:12.552Z,3.19
2023-03-17T09:38:40.723Z,2.77
2023-03-17T09:41:20.316Z,2.83
2023-03-17T09:44:12.304Z,3.05
2023-03-17T09:47:10.133Z,2.83
2023-03-17T09:49:50.719Z,2.93
2023-03-17T09:52:30.579Z,3.04
2023-03-17T09:54:59.011Z,3.31
2023-03-17T09:57:29.831Z,2.97
2023-03-17T10:00:11.614Z,3.18
2023-03-17T10:02:39.386Z,2.87
2023-03-17T10:05:24.356Z,2.82
2023-03-17T10:08:30.136Z,2.94
2023-03-17T10:11:42.291Z,2.99
2023-03-17T10:14:51.956Z,3.00
2023-03-17T10:17:25.750Z,3.08
2023-03-17T10:19:56.438Z,2.89
2023-03-17T10:22:37.631Z,3.07
2023-03-17T10:25:21.559Z,3.10
2023-03-17T10:28:08.801Z,2.89
2023-03-17T10:30:37.314Z,2.91
2023-03-17T10:33:09.829Z,2.87
2023-03-17T10:35:40.593Z,2.87
2023-03-17T10:38:23.024Z,2.95
2023-03-17T10:41:00.396Z,2.60
2023-03-17T10:43:47.232Z,2.70
2023-03-17T10:46:22.583Z,2.83
2023-03-17T10:49:11.140Z,2.80
2023-03-17T10:51:40.849Z,2.82
2023-03-17T10:54:17.683Z,2.49
2023-03-17T10:56:50.401Z,2.83
2023-03-17T10:59:25.508Z,2.59
2023-03-17T11:02:35.718Z,2.40
2023-03-17T11:05:19.735Z,2.61
2023-03-17T11:07:49.014Z,2.52
2023-03-17T11:10:24.100Z,2.46
2023-03-17T11:13:03.352Z,2.62
2023-03-17T11:15:58.564Z,2.68
2023-03-17T11:18:37.681Z,2.66
2023-03-17T11:21:31.370Z,2.42
2023-03-17T11:24:12.515Z,2.62
2023-03-17T11:26:47.119Z,2.59
2023-03-17T11:29:33.835Z,2.60
2023-03-17T11:32:21.197Z,2.56
2023-03-17T11:35:14.225Z,2.43
2023-03-17T11:37:53.899Z,2.61
2023-03-17T11:40:55.634Z,2.69
2023-03-17T11:43:31.550Z,2.96
2023-03-17T11:46:17.125Z,2.59
2023-03-17T11:49:02.970Z,2.40
2023-03-17T11:51:45.833Z,2.66
2023-03-17T11:54:29.007Z,2.75
2023-03-17T11:57:01.681Z,2.74
2023-03-17T11:59:59.750Z,2.72
2023-03-17T12:02:41.086Z,2.75
2023-03-17T12:05:10.902Z,2.69
2023-03-17T12:07:51.381Z,2.80
2023-03-17T12:10:22.915Z,3.12
2023-03-17T12:13:14.651Z,2.73
2023-03-17T12:15:54.440Z,2.99
2023-03-17T12:18:37.406Z,2.77
2023-03-17T12:21:23.776Z,2.78
2023-03-17T12:24:20.310Z,2.61
2023-03-17T12:26:52.395Z,2.82
2023-03-17T12:29:50.067Z,3.00
2023-03-17T12:32:44.285Z,2.71
2023-03-17T12:35:38.755Z,2.85
2023-03-17T12:38:16.056Z,2.71
2023-03-17T12:41:08.583Z,2.69
2023-03-17T12:44:10.285Z,2.87
2023-03-17T12:46:57.498Z,2.57
2023-03-17T12:49:45.293Z,2.86
2023-03-17T12:52:53.041Z,2.78
2023-03-17T12:55:27.025Z,2.78
2023-03-17T12:58:04.070Z,2.95
2023-03-17T13:00:50.785Z,3.02
2023-03-17T13:03:32.257Z,3.03
2023-03-17T13:06:07.624Z,2.82
2023-03-17T13:08:41.066Z,2.76
2023-03-17T13:11:36.951Z,2.44
2023-03-17T13:14:40.444Z,2.64
2023-03-17T13:17:24.817Z,2.61
2023-03-17T13:20:07.482Z,2.28
2023-03-17T13:22:46.665Z,2.37
2023-03-17T13:25:39.108Z,2.47
2023-03-17T13:28:12.894Z,2.63
2023-03-17T13:30:40.671Z,2.84
2023-03-17T13:33:11.469Z,2.80
2023-03-17T13:36:10.157Z,2.76
2023-03-17T13:39:19.178Z,2.96
2023-03-17T13:42:15.824Z,3.16
2023-03-17T13:45:14.685Z,3.12
2023-03-17T13:47:43.887Z,3.04
2023-03-17T13:50:40.174Z,2.92
2023-03-17T13:53:13.569Z,2.95
2023-03-17T13:56:02.915Z,2.90
2023-03-17T13:58:49.124Z,2.65
2023-03-17T14:01:18.405Z,2.73
2023-03-17T14:03:55.686Z,2.71
2023-03-17T14:06:31.496Z,2.80
2023-03-17T14:09:18.524Z,3.02
2023-03-17T14:11:48.479Z,2.81
2023-03-17T14:14:33.360Z,2.83
2023-03-17T14:17:24.117Z,2.99
2023-03-17T14:20:08.752Z,2.95
2023-03-17T14:22:48.383Z,2.64
2023-03-17T14:25:23.222Z,2.46
2023-03-17T14:27:56.309Z,2.47
2023-03-17T14:30:31.580Z,2.57
2023-03-17T14:33:12.485Z,2.99
2023-03-17T14:35:43.675Z,2.83
2023-03-17T14:38:31.700Z,2.92
2023-03-17T14:41:18.101Z,2.83
2023-03-17T14:43:47.353Z,3.03
2023-03-17T14:46:27.944Z,3.18
2023-03-17T14:49:05.601Z,3.16
2023-03-17T14:51:36.809Z,3.50
2023-03-17T14:54:28.789Z,2.96
2023-03-17T14:57:03.411Z,3.51
2023-03-17T14:59:37.333Z,3.68
2023-03-17T15:02:18.423Z,3.29
2023-03-17T15:04:56.168Z,2.92
2023-03-17T15:07:35.408Z,2.59
2023-03-17T15:10:04.751Z,2.46
2023-03-17T15:12:33.430Z,2.54
2023-03-17T15:15:06.331Z,2.51
2023-03-17T15:17:37.299Z,2.46
2023-03-17T15:20:17.275Z,2.42
2023-03-17T15:22:49.681Z,2.53
2023-03-17T15:25:32.168Z,2.50
2023-03-17T15:28:01.136Z,2.26
2023-03-17T15:30:37.461Z,2.47
2023-03-17T15:33:30.717Z,2.50
2023-03-17T15:36:00.473Z,2.42
2023-03-17T15:38:29.414Z,2.81
2023-03-17T15:40:57.779Z,2.71
2023-03-17T15:43:25.971Z,2.72
2023-03-17T15:46:05.303Z,2.72
2023-03-17T15:48:36.527Z,2.60
2023-03-17T15:51:06.763Z,2.89
2023-03-17T15:53:34.541Z,2.67
2023-03-17T15:56:02.934Z,2.66
2023-03-17T15:58:30.953Z,2.89
2023-03-17T16:00:59.890Z,2.81
2023-03-17T16:03:37.845Z,2.73
2023-03-17T16:06:19.817Z,2.99
2023-03-17T16:08:48.748Z,2.81
2023-03-17T16:11:19.356Z,3.17
2023-03-17T16:13:48.380Z,2.97
2023-03-17T16:16:37.833Z,2.99
2023-03-17T16:19:10.344Z,3.00
2023-03-17T16:21:38.360Z,3.20
2023-03-17T16:24:06.850Z,3.04
2023-03-17T16:26:34.638Z,2.95
2023-03-17T16:29:02.493Z,2.96
2023-03-17T16:31:30.933Z,3.41
2023-03-17T16:33:58.770Z,3.29
2023-03-17T16:36:27.185Z,3.20
2023-03-17T16:38:55.030Z,3.62
2023-03-17T16:41:25.185Z,3.67
2023-03-17T16:43:59.331Z,3.33
2023-03-17T16:46:32.185Z,3.82
2023-03-17T16:49:02.075Z,3.79
2023-03-17T16:51:30.552Z,3.81
2023-03-17T16:53:58.484Z,3.22
2023-03-17T16:56:28.245Z,3.43
2023-03-17T16:58:56.005Z,3.29
2023-03-17T17:01:28.843Z,2.99
2023-03-17T17:03:56.752Z,3.32
2023-03-17T17:06:25.689Z,3.09
2023-03-17T17:08:53.839Z,3.36
2023-03-17T17:11:22.138Z,3.52
2023-03-17T17:13:51.762Z,3.41
2023-03-17T17:16:35.935Z,3.21
2023-03-17T17:19:13.079Z,3.11
2023-03-17T17:21:41.263Z,3.57
2023-03-17T17:24:18.341Z,3.38
2023-03-17T17:26:46.216Z,3.72
2023-03-17T17:29:13.914Z,3.48
2023-03-17T17:31:41.888Z,3.44
2023-03-17T17:34:09.789Z,3.76
2023-03-17T17:36:37.642Z,3.79
2023-03-17T17:39:06.914Z,3.96
2023-03-17T17:41:34.738Z,3.74
2023-03-17T17:44:02.752Z,3.54
2023-03-17T17:46:31.022Z,3.39
2023-03-17T17:48:58.908Z,3.39
2023-03-17T17:51:28.868Z,3.30
2023-03-17T17:53:56.713Z,3.28
2023-03-17T17:56:24.721Z,3.40
2023-03-17T17:58:52.572Z,2.96
2023-03-17T18:01:22.845Z,3.71
2023-03-17T18:03:50.677Z,3.30
2023-03-17T18:06:18.659Z,3.16
2023-03-17T18:08:47.368Z,3.12
2023-03-17T18:11:15.281Z,3.39
2023-03-17T18:13:43.037Z,3.35
2023-03-17T18:16:16.481Z,3.21
2023-03-17T18:18:46.297Z,3.51
2023-03-17T18:21:15.041Z,3.33
2023-03-17T18:23:47.253Z,3.65
2023-03-17T18:26:18.100Z,3.67
2023-03-17T18:28:47.914Z,3.56
2023-03-17T18:31:24.356Z,3.65
2023-03-17T18:33:58.786Z,3.60
2023-03-17T18:36:27.891Z,3.48
2023-03-17T18:38:56.361Z,3.46
2023-03-17T18:41:25.975Z,3.59
2023-03-17T18:43:53.936Z,3.26
2023-03-17T18:46:22.895Z,3.84
2023-03-17T18:48:51.443Z,3.84
2023-03-17T18:51:19.444Z,3.40
2023-03-17T18:53:47.527Z,3.18
2023-03-17T18:56:16.181Z,3.61
2023-03-17T18:58:44.319Z,3.47
2023-03-17T19:01:12.173Z,3.59
2023-03-17T19:03:40.813Z,3.68
2023-03-17T19:06:14.976Z,3.71
2023-03-17T19:08:43.561Z,4.13
2023-03-17T19:11:14.104Z,4.02
2023-03-17T19:13:43.000Z,4.09
2023-03-17T19:16:11.260Z,3.97
2023-03-17T19:18:41.917Z,3.88
2023-03-17T19:21:11.950Z,3.74
2023-03-17T19:23:41.690Z,3.62
2023-03-17T19:26:10.566Z,3.65
2023-03-17T19:28:38.494Z,3.86
2023-03-17T19:31:06.391Z,3.59
2023-03-17T19:33:34.295Z,3.40
2023-03-17T19:36:09.642Z,3.66
2023-03-17T19:38:38.357Z,3.39
2023-03-17T19:41:06.971Z,3.39
2023-03-17T19:43:40.723Z,3.94
2023-03-17T19:46:11.526Z,3.76
2023-03-17T19:48:39.854Z,3.56
2023-03-17T19:51:08.213Z,3.18
2023-03-17T19:53:37.514Z,3.33
2023-03-17T19:56:05.640Z,3.83
2023-03-17T19:58:33.506Z,4.47
2023-03-17T20:01:01.603Z,3.80
2023-03-17T20:03:29.419Z,3.96
2023-03-17T20:05:57.422Z,3.72
2023-03-17T20:08:25.649Z,3.62
2023-03-17T20:10:54.465Z,3.53
2023-03-17T20:13:22.806Z,3.74
2023-03-17T20:15:51.717Z,3.67
2023-03-17T20:18:20.731Z,3.47
2023-03-17T20:20:53.784Z,3.53
2023-03-17T20:23:22.930Z,3.47
2023-03-17T20:25:52.384Z,4.15
2023-03-17T20:28:21.690Z,3.64
2023-03-17T20:30:50.323Z,3.27
2023-03-17T20:33:18.292Z,3.34
2023-03-17T20:35:47.409Z,3.34
2023-03-17T20:38:15.950Z,3.39
2023-03-17T20:40:43.997Z,3.76
2023-03-17T20:43:12.129Z,3.41
2023-03-17T20:45:40.005Z,3.49
2023-03-17T20:48:10.820Z,3.54
2023-03-17T20:50:40.568Z,3.25
2023-03-17T20:53:08.789Z,3.58
2023-03-17T20:55:36.732Z,3.65
2023-03-17T20:58:04.637Z,3.90
2023-03-17T21:00:32.918Z,3.60
2023-03-17T21:03:00.982Z,3.51
2023-03-17T21:05:29.791Z,3.14
2023-03-17T21:07:57.717Z,3.40
2023-03-17T21:10:25.782Z,3.66
2023-03-17T21:12:53.579Z,3.43
2023-03-17T21:15:23.641Z,3.55
2023-03-17T21:17:51.490Z,3.67
2023-03-17T21:20:21.244Z,4.01
2023-03-17T21:22:49.996Z,4.04
2023-03-17T21:25:17.901Z,3.81
2023-03-17T21:27:46.322Z,4.65
2023-03-17T21:30:15.965Z,3.97
2023-03-17T21:32:43.827Z,4.12
2023-03-17T21:35:11.648Z,4.51
2023-03-17T21:37:39.538Z,4.01
2023-03-17T21:40:08.508Z,3.92
2023-03-17T21:42:36.387Z,3.83
2023-03-17T21:45:05.461Z,3.72
2023-03-17T21:47:33.271Z,4.19
2023-03-17T21:50:01.565Z,4.19
2023-03-17T21:52:29.958Z,4.09
2023-03-17T21:54:58.503Z,4.18
2023-03-17T21:57:27.724Z,4.53
2023-03-17T21:59:55.900Z,4.40
2023-03-17T22:02:24.367Z,4.28
2023-03-17T22:04:52.417Z,4.90
2023-03-17T22:07:20.329Z,4.47
2023-03-17T22:09:48.347Z,4.28
2023-03-17T22:12:16.141Z,4.41
2023-03-17T22:14:44.113Z,4.35
2023-03-17T22:17:12.054Z,4.85
2023-03-17T22:19:42.347Z,4.83
2023-03-17T22:22:11.415Z,4.64
2023-03-17T22:24:39.418Z,4.79
2023-03-17T22:27:07.722Z,4.50
2023-03-17T22:29:35.568Z,4.94
2023-03-17T22:32:03.336Z,4.88
2023-03-17T22:34:31.487Z,4.65
2023-03-17T22:36:59.377Z,4.60
2023-03-17T22:39:27.894Z,4.90
2023-03-17T22:41:55.829Z,4.94
2023-03-17T22:44:23.990Z,4.63
2023-03-17T22:46:51.746Z,4.86
2023-03-17T22:49:19.762Z,4.65
2023-03-17T22:51:48.267Z,4.90
2023-03-17T22:54:18.463Z,4.75
2023-03-17T22:56:46.583Z,4.89
2023-03-17T22:59:14.423Z,5.08
2023-03-17T23:01:42.290Z,4.99
2023-03-17T23:04:10.275Z,5.14
2023-03-17T23:06:38.175Z,5.01
2023-03-17T23:09:06.141Z,5.15
2023-03-17T23:11:33.947Z,5.06
2023-03-17T23:14:01.939Z,5.56
2023-03-17T23:16:30.172Z,5.46
2023-03-17T23:18:58.251Z,5.11
2023-03-17T23:21:32.667Z,5.02
2023-03-17T23:24:02.027Z,5.29
2023-03-17T23:26:30.247Z,5.44
2023-03-17T23:28:58.388Z,4.92
2023-03-17T23:31:26.418Z,5.36
2023-03-17T23:33:54.479Z,4.99
2023-03-17T23:36:22.711Z,4.72
2023-03-17T23:38:52.277Z,5.17
2023-03-17T23:41:20.241Z,5.00
2023-03-17T23:43:47.995Z,4.96
2023-03-17T23:46:16.313Z,5.05
2023-03-17T23:48:44.618Z,5.24
2023-03-17T23:51:14.451Z,4.99
2023-03-17T23:53:43.104Z,4.87
2023-03-17T23:56:13.171Z,5.14
2023-03-17T23:58:43.642Z,5.52
